Riffel, Illinois
Current Conditions -  °F | °C
As of 8:35 AM on Friday 28 Nov 2014 (Local Time) from KFOA Reporting Station
Clear Clear  
Wind Chill: 17°   Ceiling: Unl
Heat Index: 27°   Visibility: 7mi
Dew Point: 24°   Wind: 10mph
Humidity: 90%   Direction: 160°SSE
Pressure: 30.32"   Gusts: NA
Location:  38.8267°N, 88.5024°W
Report Text: KFOA 281435Z AUTO 16009KT 7SM CLR M03/M04 A3032 RMK AO2 T10301045
Loading
Personal Weather Stations






























Interactive Weather Map New forecast layout! Learn more

10-Day Weather Forecast

Advertisements
Track Severe Weather on mobile